Time;durP1;ratioP1;P1;durP2;ratioP2;P2;SDS_P1;SDS_P2;PMS_P1;PMS_P2;Temp;Humidity;BMP_temperature;BMP_pressure;BME280_temperature;BME280_humidity;BME280_pressure;Samples;Min_cycle;Max_cycle;Signal;HPM_P1;HPM_P2
2021/01/30 00:00:47;;;;;;;2.28;0.68;;;;;;;5.24;78.67;94785.38;5069096;28;20110;-65
2021/01/30 00:03:14;;;;;;;0.47;0.47;;;;;;;5.26;78.85;94790.44;5068886;28;20048;-65
2021/01/30 00:05:41;;;;;;;3.17;0.70;;;;;;;5.26;78.79;94785.03;5069154;28;20109;-65
2021/01/30 00:08:08;;;;;;;0.63;0.57;;;;;;;5.32;78.92;94778.34;5068601;28;20048;-65
2021/01/30 00:10:35;;;;;;;1.30;0.55;;;;;;;5.38;78.46;94787.88;5068819;28;20044;-65
2021/01/30 00:13:03;;;;;;;2.53;0.47;;;;;;;5.35;78.46;94783.91;5068056;28;20060;-66
2021/01/30 00:15:30;;;;;;;1.55;0.50;;;;;;;5.34;78.40;94782.31;5069162;28;20044;-65
2021/01/30 00:17:57;;;;;;;0.70;0.50;;;;;;;5.37;78.92;94778.97;5068948;28;20052;-65
2021/01/30 00:20:25;;;;;;;1.30;0.68;;;;;;;5.39;79.21;94776.75;5068813;28;20044;-65
2021/01/30 00:22:52;;;;;;;0.80;0.60;;;;;;;5.39;79.27;94792.16;5068764;28;20843;-65
2021/01/30 00:25:20;;;;;;;1.10;0.52;;;;;;;5.38;79.09;94783.28;5068248;28;20059;-65
2021/01/30 00:27:46;;;;;;;0.93;0.60;;;;;;;5.40;79.58;94789.13;5068619;28;20085;-65
2021/01/30 00:30:16;;;;;;;3.63;0.60;;;;;;;5.41;79.79;94788.00;5067627;28;20044;-65
2021/01/30 00:32:42;;;;;;;1.33;0.60;;;;;;;5.37;80.01;94787.06;5068428;28;20048;-65
2021/01/30 00:35:09;;;;;;;1.85;0.70;;;;;;;5.36;80.24;94790.09;5067942;28;20049;-65
2021/01/30 00:37:35;;;;;;;2.40;0.85;;;;;;;5.33;80.62;94788.84;5068695;28;20053;-65
2021/01/30 00:40:01;;;;;;;2.40;0.57;;;;;;;5.34;80.64;94800.44;5068025;28;20525;-66
2021/01/30 00:42:28;;;;;;;2.13;0.50;;;;;;;5.34;80.87;94790.41;5068261;28;20054;-65
2021/01/30 00:44:54;;;;;;;1.83;0.60;;;;;;;5.32;81.34;94800.72;5068513;28;20495;-64
2021/01/30 00:47:22;;;;;;;2.30;0.60;;;;;;;5.29;81.43;94796.00;5067579;28;20097;-65
2021/01/30 00:49:49;;;;;;;3.90;0.85;;;;;;;5.21;82.48;94810.28;5068126;28;20056;-65
2021/01/30 00:52:16;;;;;;;1.75;0.70;;;;;;;5.13;83.09;94811.13;5066950;28;20495;-65
2021/01/30 00:54:42;;;;;;;1.15;0.63;;;;;;;5.09;83.40;94802.06;5068208;28;20498;-65
2021/01/30 00:57:08;;;;;;;1.08;0.60;;;;;;;5.04;83.73;94807.63;5067832;28;20091;-66
2021/01/30 00:59:35;;;;;;;2.20;0.73;;;;;;;5.04;83.72;94804.94;5067704;28;20817;-65
2021/01/30 01:02:01;;;;;;;1.83;0.90;;;;;;;5.05;83.90;94806.53;5067478;28;20052;-65
2021/01/30 01:04:27;;;;;;;2.35;0.80;;;;;;;5.02;84.51;94812.56;5066475;28;20274;-65
2021/01/30 01:06:53;;;;;;;2.55;1.00;;;;;;;5.03;84.07;94814.16;5067530;28;20113;-65
2021/01/30 01:09:20;;;;;;;2.38;1.15;;;;;;;5.07;83.79;94820.50;5066655;28;20056;-65
2021/01/30 01:11:48;;;;;;;1.60;0.65;;;;;;;5.11;83.72;94816.03;5066786;28;20056;-64
2021/01/30 01:14:15;;;;;;;2.85;0.90;;;;;;;5.08;84.17;94813.97;5067194;28;20061;-65
2021/01/30 01:16:41;;;;;;;2.83;1.00;;;;;;;5.06;83.87;94814.28;5066443;28;20105;-65
2021/01/30 01:19:07;;;;;;;1.40;0.73;;;;;;;5.00;84.37;94820.16;5069544;28;20127;-66
2021/01/30 01:21:34;;;;;;;5.22;0.80;;;;;;;5.03;84.63;94819.53;5069814;28;20052;-65
2021/01/30 01:24:00;;;;;;;2.60;0.90;;;;;;;5.01;84.91;94816.34;5070879;28;20067;-65
2021/01/30 01:26:27;;;;;;;3.42;1.00;;;;;;;4.99;85.21;94819.38;5069388;28;20569;-65
2021/01/30 01:28:53;;;;;;;1.85;1.00;;;;;;;4.95;85.54;94816.53;5069948;28;20110;-65
2021/01/30 01:31:20;;;;;;;2.25;1.05;;;;;;;4.92;85.52;94827.97;5069588;28;20048;-65
2021/01/30 01:33:47;;;;;;;1.67;1.00;;;;;;;4.94;85.94;94814.94;5070045;28;20044;-65
2021/01/30 01:36:14;;;;;;;2.78;1.20;;;;;;;4.92;85.97;94814.47;5069915;28;20384;-65
2021/01/30 01:38:42;;;;;;;1.58;0.82;;;;;;;4.95;85.41;94818.44;5070994;28;20060;-65
2021/01/30 01:41:08;;;;;;;2.45;0.98;;;;;;;4.95;85.29;94824.63;5070422;28;20040;-66
2021/01/30 01:43:34;;;;;;;1.73;0.98;;;;;;;4.96;85.75;94823.53;5071047;28;20044;-65
2021/01/30 01:46:13;;;;;;;2.80;0.90;;;;;;;4.95;85.53;94830.00;5070691;28;20118;-64
2021/01/30 01:48:51;;;;;;;1.60;0.80;;;;;;;4.98;84.91;94818.59;5070715;28;20060;-65
2021/01/30 01:51:26;;;;;;;1.85;0.90;;;;;;;5.04;84.56;94837.31;5070471;28;20048;-65
2021/01/30 01:53:54;;;;;;;2.30;0.80;;;;;;;5.06;84.42;94826.97;5070785;28;20385;-65
2021/01/30 01:56:22;;;;;;;2.55;0.90;;;;;;;5.09;84.01;94856.81;5070104;28;20051;-65
2021/01/30 01:58:52;;;;;;;1.95;0.82;;;;;;;5.17;83.33;94837.16;5070244;28;20545;-65
2021/01/30 02:01:19;;;;;;;2.80;0.80;;;;;;;5.26;82.13;94849.81;5070272;28;20453;-64
2021/01/30 02:03:52;;;;;;;3.83;0.73;;;;;;;5.31;81.78;94849.63;5074855;28;20101;-64
2021/01/30 02:06:19;;;;;;;2.75;1.02;;;;;;;5.37;81.13;94849.13;5074253;28;20500;-64
2021/01/30 02:08:47;;;;;;;1.70;0.60;;;;;;;5.41;80.92;94843.91;5074674;28;20051;-64
2021/01/30 02:11:14;;;;;;;1.00;0.60;;;;;;;5.43;80.97;94861.38;5054235;28;20052;-67
2021/01/30 02:13:43;;;;;;;1.92;0.70;;;;;;;5.37;80.93;94865.34;5054572;28;20060;-64
2021/01/30 02:16:18;;;;;;;1.05;0.63;;;;;;;5.37;81.16;94861.84;5054013;28;20048;-65
2021/01/30 02:18:54;;;;;;;1.00;0.60;;;;;;;5.38;80.73;94868.84;5054414;28;20500;-64
2021/01/30 02:21:57;;;;;;;1.23;0.68;;;;;;;5.42;80.26;94861.69;5053859;28;20132;-64
2021/01/30 02:25:02;;;;;;;3.30;0.70;;;;;;;5.40;80.59;94863.91;5054084;28;20041;-64
2021/01/30 02:27:54;;;;;;;;;;;;;;;5.42;79.76;94867.06;5055662;28;20037;-64
2021/01/30 02:30:40;;;;;;;0.60;0.52;;;;;;;5.43;78.80;94882.19;5053899;28;19936;-64
2021/01/30 02:33:26;;;;;;;0.82;0.40;;;;;;;5.44;78.93;94878.38;5066694;28;20040;-65
2021/01/30 02:36:09;;;;;;;1.55;0.70;;;;;;;5.47;78.64;94877.72;5074240;28;20109;-66
2021/01/30 02:38:40;;;;;;;1.23;0.50;;;;;;;5.47;78.24;94889.28;5074167;28;20078;-66
2021/01/30 02:41:15;;;;;;;3.33;1.05;;;;;;;5.42;78.37;94885.97;5073645;28;20530;-67
2021/01/30 02:43:45;;;;;;;1.23;0.43;;;;;;;5.39;77.92;94884.72;5073997;28;20762;-66
2021/01/30 02:46:19;;;;;;;1.02;0.43;;;;;;;5.39;78.27;94887.44;5073128;28;20559;-64
2021/01/30 02:48:48;;;;;;;1.58;0.40;;;;;;;5.37;77.41;94889.63;5073945;28;20040;-64
2021/01/30 02:51:19;;;;;;;0.28;0.20;;;;;;;5.38;77.49;94885.84;5073281;28;20048;-64
2021/01/30 02:53:49;;;;;;;1.20;0.40;;;;;;;5.31;77.98;94885.53;5073948;28;20036;-64
2021/01/30 02:56:15;;;;;;;1.10;0.40;;;;;;;5.33;78.32;94888.72;5073271;28;20040;-65
2021/01/30 02:58:47;;;;;;;2.78;0.70;;;;;;;5.36;78.10;94888.06;5073302;28;20415;-64
2021/01/30 03:01:13;;;;;;;0.43;0.35;;;;;;;5.31;79.08;94899.00;5073175;28;20068;-65
2021/01/30 03:03:40;;;;;;;2.15;0.50;;;;;;;5.36;78.81;94879.16;5073760;28;20114;-65
2021/01/30 03:06:13;;;;;;;1.48;0.40;;;;;;;5.29;79.21;94885.06;5073102;28;20048;-65
2021/01/30 03:08:45;;;;;;;1.38;0.50;;;;;;;5.25;79.03;94881.41;5073534;28;20126;-64
2021/01/30 03:11:15;;;;;;;0.75;0.50;;;;;;;5.22;78.95;94892.84;5073048;28;20048;-66
2021/01/30 03:13:50;;;;;;;2.55;0.70;;;;;;;5.19;78.93;94888.09;5072622;28;20427;-66
2021/01/30 03:16:20;;;;;;;1.50;0.40;;;;;;;5.19;78.90;94896.19;5073054;28;20052;-67
2021/01/30 03:18:50;;;;;;;2.13;0.52;;;;;;;5.19;78.29;94888.88;5073325;28;20055;-65
2021/01/30 03:21:17;;;;;;;1.17;0.52;;;;;;;5.28;78.39;94891.56;5072846;28;20526;-65
2021/01/30 03:23:44;;;;;;;0.98;0.50;;;;;;;5.21;78.19;94885.84;5073364;28;20080;-65
2021/01/30 03:26:14;;;;;;;0.88;0.40;;;;;;;5.24;77.94;94888.72;5067343;28;20052;-65
2021/01/30 03:28:40;;;;;;;4.22;0.52;;;;;;;5.24;77.75;94879.81;5073242;28;20051;-65
2021/01/30 03:31:07;;;;;;;3.13;0.47;;;;;;;5.26;77.99;94885.69;5072170;28;20036;-65
2021/01/30 03:33:33;;;;;;;1.13;0.52;;;;;;;5.30;78.08;94886.63;5065922;28;20041;-65
2021/01/30 03:35:59;;;;;;;0.82;0.40;;;;;;;5.22;78.00;94900.94;5072901;28;20510;-66
2021/01/30 03:38:25;;;;;;;0.82;0.45;;;;;;;5.22;78.15;94898.25;5072471;28;20040;-64
2021/01/30 03:40:52;;;;;;;0.75;0.30;;;;;;;5.21;78.11;94907.44;5072749;28;20403;-66
2021/01/30 03:43:18;;;;;;;0.95;0.52;;;;;;;5.22;77.84;94909.06;5072289;28;20052;-67
2021/01/30 03:45:44;;;;;;;0.47;0.38;;;;;;;5.27;77.80;94906.16;5072771;28;20098;-65
2021/01/30 03:48:10;;;;;;;0.60;0.40;;;;;;;5.26;77.84;94909.97;5072417;28;20419;-65
2021/01/30 03:50:36;;;;;;;0.40;0.40;;;;;;;5.19;79.09;94906.97;5073026;28;20037;-64
2021/01/30 03:53:04;;;;;;;0.80;0.35;;;;;;;4.98;80.55;94910.31;5072251;28;20071;-65
2021/01/30 03:55:30;;;;;;;1.65;0.40;;;;;;;4.85;81.67;94911.25;5072568;28;20123;-64
2021/01/30 03:57:57;;;;;;;0.45;0.40;;;;;;;4.77;82.10;94912.06;5072640;28;20514;-64
2021/01/30 04:00:24;;;;;;;2.53;0.60;;;;;;;4.70;83.21;94914.44;5071839;28;20055;-64
2021/01/30 04:02:50;;;;;;;1.67;0.60;;;;;;;4.71;83.53;94905.22;5071872;28;20491;-64
2021/01/30 04:05:18;;;;;;;1.33;0.60;;;;;;;4.64;84.20;94919.16;5072233;28;20083;-64
2021/01/30 04:07:47;;;;;;;1.20;0.65;;;;;;;4.66;84.44;94918.88;5072349;28;20408;-65
2021/01/30 04:10:16;;;;;;;1.95;0.70;;;;;;;4.61;84.95;94916.31;5071964;28;20041;-65
2021/01/30 04:12:42;;;;;;;1.35;0.50;;;;;;;4.60;85.16;94920.91;5072180;28;20048;-65
2021/01/30 04:15:12;;;;;;;0.60;0.60;;;;;;;4.53;85.82;94922.47;5071670;28;20090;-65
2021/01/30 04:17:38;;;;;;;5.18;0.93;;;;;;;4.48;86.35;94922.63;5072213;28;20055;-65
2021/01/30 04:20:04;;;;;;;1.52;0.70;;;;;;;4.53;86.54;94914.38;5071673;28;20045;-65
2021/01/30 04:22:30;;;;;;;3.00;0.70;;;;;;;4.54;86.33;94913.28;5072112;28;20404;-65
2021/01/30 04:24:56;;;;;;;1.38;0.80;;;;;;;4.56;86.24;94911.06;5072145;28;20051;-65
2021/01/30 04:27:22;;;;;;;1.77;0.60;;;;;;;4.57;86.30;94915.34;5071458;28;20078;-65
2021/01/30 04:29:48;;;;;;;0.95;0.60;;;;;;;4.56;86.08;94911.06;5071783;28;20056;-65
2021/01/30 04:32:15;;;;;;;2.17;0.70;;;;;;;4.55;85.60;94907.59;5071134;28;20056;-65
2021/01/30 04:34:41;;;;;;;0.93;0.40;;;;;;;4.56;85.49;94903.78;5071275;28;20052;-65
2021/01/30 04:37:07;;;;;;;2.58;0.70;;;;;;;4.59;85.05;94911.22;5071497;28;20048;-65
2021/01/30 04:39:33;;;;;;;1.98;0.50;;;;;;;4.68;84.83;94905.84;5071940;28;20037;-65
2021/01/30 04:42:05;;;;;;;1.08;0.52;;;;;;;4.75;83.95;94899.97;5071551;28;20063;-65
2021/01/30 04:44:40;;;;;;;3.95;0.60;;;;;;;4.86;83.05;94898.59;5071649;28;20041;-65
2021/01/30 04:47:22;;;;;;;2.20;0.68;;;;;;;4.89;82.38;94893.31;5071195;28;20048;-65
2021/01/30 04:49:54;;;;;;;5.40;0.70;;;;;;;4.95;82.14;94889.34;5071621;28;20071;-65
2021/01/30 04:52:42;;;;;;;2.53;0.73;;;;;;;5.00;82.06;94895.72;5071197;28;20634;-65
2021/01/30 04:55:22;;;;;;;3.25;0.70;;;;;;;5.03;81.05;94890.47;5067438;28;20056;-65
2021/01/30 04:58:01;;;;;;;4.53;0.60;;;;;;;5.12;80.28;94887.78;5071559;28;20380;-64
2021/01/30 05:00:39;;;;;;;2.50;0.82;;;;;;;5.12;80.12;94882.38;5071158;28;20089;-65
2021/01/30 05:03:26;;;;;;;3.47;0.73;;;;;;;5.11;80.16;94884.25;5070099;28;20044;-65
2021/01/30 05:05:57;;;;;;;1.65;0.55;;;;;;;5.13;80.06;94892.06;5071222;28;20384;-64
2021/01/30 05:08:30;;;;;;;5.28;0.80;;;;;;;5.14;79.94;94880.94;5070904;28;20044;-64
2021/01/30 05:10:58;;;;;;;;;;;;;;;5.16;79.30;94889.50;5071831;28;20071;-64
2021/01/30 05:13:28;;;;;;;3.40;1.23;;;;;;;5.14;79.23;94885.56;5070503;28;19973;-64
2021/01/30 05:15:57;;;;;;;1.80;0.65;;;;;;;5.17;79.00;94883.00;5071192;28;20049;-64
2021/01/30 05:18:28;;;;;;;3.78;0.65;;;;;;;5.22;78.89;94871.28;5070558;28;20041;-64
2021/01/30 05:20:57;;;;;;;5.65;0.60;;;;;;;5.32;78.61;94881.69;5071192;28;20045;-64
2021/01/30 05:23:24;;;;;;;2.42;0.75;;;;;;;5.27;78.21;94871.06;5070651;28;20399;-64
2021/01/30 05:25:57;;;;;;;3.03;0.70;;;;;;;5.31;78.02;94868.53;5071051;28;20059;-66
2021/01/30 05:28:31;;;;;;;2.80;0.77;;;;;;;5.28;77.97;94858.41;5070465;28;20044;-64
2021/01/30 05:31:05;;;;;;;3.63;1.00;;;;;;;5.33;78.28;94866.31;5071093;28;20045;-64
2021/01/30 05:33:54;;;;;;;3.88;0.98;;;;;;;5.26;77.79;94860.59;5079610;28;20043;-64
2021/01/30 05:36:25;;;;;;;2.65;0.70;;;;;;;5.32;77.55;94865.50;5090342;28;20040;-64
2021/01/30 05:39:02;;;;;;;3.92;0.75;;;;;;;5.34;76.77;94868.69;5090986;28;20556;-64
2021/01/30 05:41:40;;;;;;;3.65;0.80;;;;;;;5.29;76.68;94863.47;5070849;28;20090;-64
2021/01/30 05:44:11;;;;;;;5.63;1.02;;;;;;;5.30;75.89;94856.94;5070658;28;20581;-65
2021/01/30 05:46:39;;;;;;;4.65;1.10;;;;;;;5.33;75.93;94850.94;5070935;28;20040;-66
2021/01/30 05:49:14;;;;;;;2.92;0.90;;;;;;;5.29;76.25;94852.66;5070341;28;20040;-64
2021/01/30 05:51:45;;;;;;;6.72;1.40;;;;;;;5.27;75.67;94852.19;5071096;28;20098;-64
2021/01/30 05:54:11;;;;;;;3.67;0.70;;;;;;;5.29;75.90;94849.97;5070465;28;20048;-64
2021/01/30 05:56:38;;;;;;;5.28;1.10;;;;;;;5.26;75.73;94845.19;5070691;28;20123;-64
2021/01/30 05:59:08;;;;;;;7.32;1.00;;;;;;;5.25;75.70;94849.03;5070265;28;20048;-64
2021/01/30 06:01:34;;;;;;;3.95;0.93;;;;;;;5.24;75.97;94842.84;5070675;28;20541;-64
2021/01/30 06:04:02;;;;;;;2.47;0.82;;;;;;;5.29;75.97;94830.28;5070081;28;20040;-64
2021/01/30 06:06:34;;;;;;;4.22;1.00;;;;;;;5.26;75.49;94829.00;5070491;28;20110;-65
2021/01/30 06:09:04;;;;;;;8.82;1.55;;;;;;;5.18;75.58;94827.94;5070490;28;20059;-65
2021/01/30 06:11:41;;;;;;;5.85;0.93;;;;;;;5.16;76.14;94823.94;5070143;28;20048;-66
2021/01/30 06:14:08;;;;;;;6.45;0.90;;;;;;;5.19;76.41;94831.41;5070122;28;20411;-65
2021/01/30 06:16:36;;;;;;;6.82;0.95;;;;;;;5.12;76.08;94823.81;5070589;28;20221;-66
2021/01/30 06:19:13;;;;;;;1.75;0.80;;;;;;;5.16;76.06;94818.56;5070190;28;20127;-67
2021/01/30 06:21:41;;;;;;;5.45;1.10;;;;;;;5.12;76.38;94814.94;5070625;28;20056;-64
2021/01/30 06:24:09;;;;;;;3.78;0.77;;;;;;;5.18;76.40;94813.66;5070259;28;20052;-67
2021/01/30 06:26:40;;;;;;;5.45;0.70;;;;;;;5.10;76.69;94815.22;5070377;28;20067;-65
2021/01/30 06:29:14;;;;;;;6.80;0.98;;;;;;;5.08;76.88;94812.06;5069922;28;20044;-65
2021/01/30 06:31:41;;;;;;;4.97;0.82;;;;;;;5.13;76.91;94813.81;5070455;28;20510;-65
2021/01/30 06:34:23;;;;;;;6.47;0.90;;;;;;;5.06;76.89;94819.69;5069367;28;20055;-65
2021/01/30 06:36:52;;;;;;;4.13;1.23;;;;;;;5.10;77.03;94817.13;5070498;28;20060;-64
2021/01/30 06:39:26;;;;;;;5.60;1.30;;;;;;;5.08;76.96;94822.06;5070088;28;20048;-65
2021/01/30 06:41:55;;;;;;;3.97;0.90;;;;;;;5.11;77.14;94821.41;5070305;28;20048;-66
2021/01/30 06:44:26;;;;;;;4.82;1.10;;;;;;;5.13;76.86;94813.81;5069806;28;20053;-65
2021/01/30 06:47:15;;;;;;;4.05;0.93;;;;;;;5.12;76.71;94810.31;5070263;28;20135;-65
2021/01/30 06:49:44;;;;;;;6.45;1.20;;;;;;;5.13;76.94;94819.22;5072440;28;20063;-65
2021/01/30 06:52:20;;;;;;;9.63;1.17;;;;;;;5.18;76.75;94816.34;5073359;28;20048;-65
2021/01/30 06:54:46;;;;;;;6.82;1.02;;;;;;;5.18;77.04;94816.34;5073974;28;20123;-65
2021/01/30 06:57:19;;;;;;;8.30;1.70;;;;;;;5.18;76.74;94813.66;5073161;28;20430;-65
2021/01/30 06:59:58;;;;;;;4.38;0.90;;;;;;;5.27;76.42;94808.22;5073888;28;20049;-65
2021/01/30 07:02:30;;;;;;;5.43;1.00;;;;;;;5.28;76.37;94805.22;5072913;28;20037;-65
2021/01/30 07:05:16;;;;;;;7.03;1.10;;;;;;;5.30;76.64;94797.56;5053517;28;20045;-65
2021/01/30 07:08:06;;;;;;;6.18;0.90;;;;;;;5.28;76.83;94804.41;5053444;28;20045;-65
2021/01/30 07:10:44;;;;;;;5.28;0.80;;;;;;;5.26;76.74;94798.53;5067866;28;20467;-65
2021/01/30 07:13:31;;;;;;;3.00;1.10;;;;;;;5.25;76.67;94800.44;5072897;28;20051;-65
2021/01/30 07:16:08;;;;;;;5.35;1.00;;;;;;;5.29;76.53;94798.69;5073428;28;20522;-65
2021/01/30 07:18:48;;;;;;;4.28;1.20;;;;;;;5.24;77.06;94796.16;5073149;28;20041;-65
2021/01/30 07:21:20;;;;;;;5.47;1.20;;;;;;;5.27;76.31;94809.00;5073075;28;20044;-65
2021/01/30 07:23:56;;;;;;;4.43;1.00;;;;;;;5.32;76.17;94800.72;5073324;28;20048;-65
2021/01/30 07:26:28;;;;;;;6.38;1.40;;;;;;;5.33;75.76;94791.53;5072702;28;20052;-65
2021/01/30 07:28:59;;;;;;;4.45;1.45;;;;;;;5.35;75.81;94789.31;5072809;28;20048;-64
2021/01/30 07:31:31;;;;;;;4.07;1.00;;;;;;;5.35;75.51;94792.00;5072966;28;20040;-67
2021/01/30 07:34:04;;;;;;;5.70;1.00;;;;;;;5.47;75.03;94797.50;5070990;28;20041;-64
2021/01/30 07:36:35;;;;;;;9.88;1.30;;;;;;;5.47;74.77;94792.09;5072946;28;20044;-64
2021/01/30 07:39:09;;;;;;;5.78;1.20;;;;;;;5.50;74.91;94791.47;5072917;28;20040;-64
2021/01/30 07:41:48;;;;;;;3.28;0.95;;;;;;;5.49;74.87;94795.28;5072823;28;20037;-66
2021/01/30 07:44:19;;;;;;;3.25;1.00;;;;;;;5.45;74.84;94799.75;5072326;28;20512;-65
2021/01/30 07:46:47;;;;;;;6.72;1.10;;;;;;;5.57;74.78;94795.56;5073116;28;20060;-65
2021/01/30 07:49:18;;;;;;;9.15;1.13;;;;;;;5.49;74.75;94800.69;5072349;28;20123;-65
2021/01/30 07:51:58;;;;;;;4.53;1.08;;;;;;;5.57;74.80;94790.97;5072895;28;20145;-64
2021/01/30 07:54:25;;;;;;;4.93;1.10;;;;;;;5.54;74.74;94790.84;5072239;28;20098;-64
2021/01/30 07:57:11;;;;;;;4.80;1.10;;;;;;;5.49;74.43;94784.50;5072839;28;20044;-64
2021/01/30 07:59:47;;;;;;;6.10;1.10;;;;;;;5.53;74.77;94789.22;5072125;28;20041;-65
2021/01/30 08:02:40;;;;;;;5.28;1.02;;;;;;;5.47;75.03;94775.91;5071574;28;20041;-64
2021/01/30 08:05:21;;;;;;;5.03;1.50;;;;;;;5.59;74.93;94772.53;5072117;28;20048;-65
2021/01/30 08:07:55;;;;;;;5.75;1.10;;;;;;;5.61;74.77;94778.41;5071151;28;20052;-64
2021/01/30 08:10:32;;;;;;;2.97;0.85;;;;;;;5.61;74.77;94774.91;5071833;28;20166;-65
2021/01/30 08:13:15;;;;;;;4.53;1.25;;;;;;;5.63;74.99;94778.06;5072158;28;20049;-66
2021/01/30 08:15:50;;;;;;;8.00;1.45;;;;;;;5.63;74.97;94772.66;5072245;28;20044;-64
2021/01/30 08:18:27;;;;;;;6.45;1.20;;;;;;;5.63;74.72;94767.28;5071762;28;20045;-65
2021/01/30 08:20:57;;;;;;;3.95;1.10;;;;;;;5.66;74.94;94761.22;5072100;28;20044;-64
2021/01/30 08:23:39;;;;;;;4.47;1.20;;;;;;;5.60;74.98;94741.72;5071804;28;20040;-65
2021/01/30 08:26:13;;;;;;;5.57;1.30;;;;;;;5.61;74.50;94748.69;5071589;28;20056;-65
2021/01/30 08:28:45;;;;;;;5.70;1.20;;;;;;;5.61;74.73;94753.31;5071742;28;20534;-64
2021/01/30 08:31:33;;;;;;;11.77;1.30;;;;;;;5.61;75.01;94747.91;5071312;28;20068;-64
2021/01/30 08:34:05;;;;;;;10.13;1.90;;;;;;;5.61;74.65;94756.00;5066346;28;20049;-71
2021/01/30 08:36:33;;;;;;;9.27;1.52;;;;;;;5.72;74.53;94746.41;5068013;28;20055;-69
2021/01/30 08:39:17;;;;;;;7.95;1.50;;;;;;;5.70;74.25;94745.97;5049618;28;20053;-68
2021/01/30 08:41:48;;;;;;;4.78;1.42;;;;;;;5.74;73.74;94744.19;5068311;28;20063;-68
2021/01/30 08:44:30;;;;;;;7.75;1.40;;;;;;;5.72;74.15;94741.03;5067782;28;20453;-69
2021/01/30 08:47:09;;;;;;;7.90;1.80;;;;;;;5.76;73.84;94740.03;5068496;28;20052;-70
2021/01/30 08:49:35;;;;;;;6.65;1.30;;;;;;;5.83;73.63;94744.94;5068574;28;20048;-68
2021/01/30 08:52:20;;;;;;;8.38;1.70;;;;;;;5.93;73.63;94736.47;5068497;28;20048;-69
2021/01/30 08:54:47;;;;;;;8.30;1.50;;;;;;;5.98;73.53;94741.69;5068497;28;20055;-68
2021/01/30 08:57:42;;;;;;;5.47;1.50;;;;;;;6.04;73.32;94744.19;5068284;28;20109;-68
2021/01/30 09:00:12;;;;;;;6.10;1.38;;;;;;;6.09;73.38;94742.09;5067967;28;20059;-68
2021/01/30 09:02:50;;;;;;;8.07;1.48;;;;;;;6.03;72.90;94748.03;5067919;28;20067;-69
2021/01/30 09:05:43;;;;;;;6.10;1.25;;;;;;;6.06;72.83;94744.69;5067782;28;20049;-69
2021/01/30 09:08:35;;;;;;;6.72;1.83;;;;;;;5.99;73.05;94740.56;5067468;28;20072;-69
2021/01/30 09:11:21;;;;;;;8.80;1.48;;;;;;;6.12;72.80;94748.75;5068132;28;20052;-69
2021/01/30 09:14:05;;;;;;;7.82;1.40;;;;;;;6.16;72.84;94745.09;5067220;28;20139;-69
2021/01/30 09:16:40;;;;;;;7.72;1.85;;;;;;;6.24;72.25;94748.81;5068061;28;20048;-69
2021/01/30 09:19:16;;;;;;;6.38;1.65;;;;;;;6.27;72.03;94748.97;5068042;28;20044;-70
2021/01/30 09:21:56;;;;;;;7.45;1.25;;;;;;;6.24;72.36;94748.81;5068227;28;20052;-69
2021/01/30 09:24:50;;;;;;;8.90;1.50;;;;;;;6.34;72.27;94748.44;5067499;28;20045;-69
2021/01/30 09:27:22;;;;;;;8.57;1.75;;;;;;;6.37;71.82;94741.56;5067915;28;20082;-68
2021/01/30 09:29:51;;;;;;;6.28;1.40;;;;;;;6.33;72.02;94741.44;5067943;28;20076;-69
2021/01/30 09:32:23;;;;;;;6.72;1.27;;;;;;;6.34;72.95;94737.63;5067266;28;20056;-68
2021/01/30 09:34:53;;;;;;;7.05;1.38;;;;;;;6.27;71.82;94737.38;5067948;28;20784;-69
2021/01/30 09:37:36;;;;;;;6.75;1.25;;;;;;;6.26;72.22;94735.75;5067281;28;20044;-68
2021/01/30 09:40:06;;;;;;;6.30;1.50;;;;;;;6.13;72.29;94742.22;5067671;28;20053;-69
2021/01/30 09:42:32;;;;;;;5.85;1.30;;;;;;;6.24;72.33;94748.81;5067942;28;20048;-70
2021/01/30 09:45:07;;;;;;;7.72;1.80;;;;;;;6.18;72.28;94744.75;5067763;28;20059;-69
2021/01/30 09:47:34;;;;;;;7.53;1.55;;;;;;;6.18;72.64;94745.53;5067259;28;20064;-69
2021/01/30 09:50:03;;;;;;;6.43;1.30;;;;;;;6.09;72.78;94746.72;5067923;28;20053;-69
2021/01/30 09:52:29;;;;;;;7.43;1.40;;;;;;;6.13;72.64;94743.03;5067164;28;20065;-70
2021/01/30 09:55:02;;;;;;;9.43;1.58;;;;;;;6.17;72.45;94743.16;5067691;28;20427;-68
2021/01/30 09:57:29;;;;;;;8.98;1.38;;;;;;;6.09;72.73;94735.91;5067586;28;20036;-71
2021/01/30 09:59:56;;;;;;;9.65;2.13;;;;;;;6.23;72.89;94741.84;5067486;28;20048;-69
2021/01/30 10:02:25;;;;;;;6.60;1.20;;;;;;;6.36;72.52;94740.78;5066684;28;20135;-69
2021/01/30 10:05:09;;;;;;;5.07;1.27;;;;;;;6.43;71.88;94738.34;5067066;28;20044;-70
2021/01/30 10:07:42;;;;;;;9.68;1.60;;;;;;;6.61;71.15;94736.28;5067730;28;20052;-70
2021/01/30 10:10:28;;;;;;;9.00;1.60;;;;;;;6.65;70.23;94734.50;5067496;28;20048;-71
2021/01/30 10:12:55;;;;;;;8.05;1.50;;;;;;;6.75;70.64;94731.38;5067496;28;20055;-68
2021/01/30 10:15:33;;;;;;;7.00;1.10;;;;;;;6.70;69.44;94737.00;5067099;28;20057;-71
2021/01/30 10:18:03;;;;;;;6.75;1.25;;;;;;;6.66;69.52;94727.97;5067740;28;20049;-69
2021/01/30 10:20:42;;;;;;;6.18;1.25;;;;;;;6.56;70.37;94712.16;5067385;28;20487;-71
2021/01/30 10:23:10;;;;;;;5.68;1.33;;;;;;;6.66;71.03;94721.75;5068257;28;20052;-68
2021/01/30 10:25:37;;;;;;;6.88;1.23;;;;;;;6.84;70.46;94717.78;5071890;28;20129;-69
2021/01/30 10:28:05;;;;;;;4.20;1.75;;;;;;;6.97;69.36;94718.59;5070507;28;20456;-69
2021/01/30 10:30:32;;;;;;;6.55;1.55;;;;;;;7.02;69.14;94724.59;5071267;28;20057;-68
2021/01/30 10:33:00;;;;;;;7.82;1.33;;;;;;;7.11;69.15;94719.09;5070245;28;20053;-71
2021/01/30 10:35:33;;;;;;;6.65;1.45;;;;;;;7.13;68.79;94714.13;5091120;28;20055;-70
2021/01/30 10:38:03;;;;;;;6.63;1.30;;;;;;;7.01;68.58;94711.38;5091158;28;20048;-68
2021/01/30 10:40:33;;;;;;;11.95;1.35;;;;;;;7.23;68.09;94712.91;5090690;28;20044;-68
2021/01/30 10:43:02;;;;;;;5.45;1.60;;;;;;;7.36;67.89;94714.50;5091041;28;20245;-68
2021/01/30 10:45:31;;;;;;;8.50;1.45;;;;;;;7.33;67.51;94698.91;5090978;28;20040;-68
2021/01/30 10:48:02;;;;;;;7.22;1.27;;;;;;;7.48;67.19;94698.25;5090873;28;20131;-68
2021/01/30 10:50:34;;;;;;;9.32;2.00;;;;;;;7.48;67.11;94692.84;5070177;28;20410;-68
2021/01/30 10:53:20;;;;;;;6.88;1.67;;;;;;;7.57;66.41;94685.41;5070737;28;20057;-68
2021/01/30 10:55:47;;;;;;;11.02;1.90;;;;;;;7.75;65.89;94690.56;5070808;28;20052;-69
2021/01/30 10:58:16;;;;;;;4.65;1.30;;;;;;;7.92;65.71;94687.59;5070167;28;20098;-68
2021/01/30 11:00:43;;;;;;;6.43;1.30;;;;;;;7.96;65.62;94674.94;5070726;28;20048;-68
2021/01/30 11:03:23;;;;;;;9.80;1.45;;;;;;;8.06;65.44;94669.06;5069436;28;20117;-69
2021/01/30 11:05:50;;;;;;;9.68;1.60;;;;;;;8.40;64.77;94672.34;5070780;28;20044;-68
2021/01/30 11:08:31;;;;;;;7.97;1.70;;;;;;;8.42;63.08;94664.69;5070282;28;20076;-69
2021/01/30 11:11:02;;;;;;;9.70;1.63;;;;;;;8.46;64.19;94665.59;5070299;28;20656;-69
2021/01/30 11:13:33;;;;;;;6.07;1.58;;;;;;;8.55;62.47;94668.13;5069988;28;20052;-68
2021/01/30 11:16:14;;;;;;;8.35;1.42;;;;;;;8.72;63.32;94667.03;5070425;28;20056;-69
2021/01/30 11:18:47;;;;;;;5.88;1.20;;;;;;;8.76;63.46;94668.69;5070423;28;20533;-69
2021/01/30 11:21:27;;;;;;;7.88;1.73;;;;;;;8.79;61.33;94667.22;5070002;28;20048;-69
2021/01/30 11:23:54;;;;;;;8.10;1.75;;;;;;;8.57;61.10;94661.22;5070360;28;20081;-68
2021/01/30 11:26:38;;;;;;;7.70;1.33;;;;;;;8.54;61.84;94661.13;5069779;28;20455;-69
2021/01/30 11:29:27;;;;;;;8.88;1.70;;;;;;;8.50;61.08;94665.66;5069463;28;20048;-68
2021/01/30 11:31:54;;;;;;;10.35;1.40;;;;;;;8.38;60.53;94663.00;5070005;28;20062;-68
2021/01/30 11:34:20;;;;;;;6.43;1.23;;;;;;;8.35;61.20;94667.16;5068135;28;20063;-68
2021/01/30 11:36:47;;;;;;;7.60;1.50;;;;;;;8.53;61.41;94654.91;5069951;28;20080;-69
2021/01/30 11:39:13;;;;;;;10.35;2.05;;;;;;;8.95;60.98;94643.63;5069693;28;20052;-68
2021/01/30 11:41:39;;;;;;;5.43;1.38;;;;;;;9.18;60.37;94634.84;5069820;28;20053;-69
2021/01/30 11:44:05;;;;;;;10.02;2.25;;;;;;;9.24;60.91;94633.44;5068857;28;20409;-69
2021/01/30 11:46:31;;;;;;;8.95;1.52;;;;;;;9.37;60.88;94629.50;5069470;28;20522;-69
2021/01/30 11:48:57;;;;;;;7.75;1.23;;;;;;;9.37;60.09;94634.94;5069636;28;20131;-68
2021/01/30 11:51:25;;;;;;;6.45;1.50;;;;;;;9.39;58.65;94624.50;5068840;28;20411;-68
2021/01/30 11:53:53;;;;;;;10.30;1.48;;;;;;;9.52;58.63;94636.84;5069304;28;20059;-69
2021/01/30 11:56:20;;;;;;;6.63;1.67;;;;;;;9.61;56.84;94632.03;5069078;28;20044;-68
2021/01/30 11:58:46;;;;;;;7.63;1.10;;;;;;;9.23;58.26;94621.78;5069712;28;20059;-68
2021/01/30 12:01:14;;;;;;;7.35;1.58;;;;;;;9.07;57.70;94624.50;5068702;28;20048;-68
2021/01/30 12:03:40;;;;;;;6.13;1.33;;;;;;;8.99;59.47;94617.34;5068831;28;20151;-68